Time;durP1;ratioP1;P1;durP2;ratioP2;P2;SDS_P1;SDS_P2;PMS_P1;PMS_P2;Temp;Humidity;BMP_temperature;BMP_pressure;BME280_temperature;BME280_humidity;BME280_pressure;Samples;Min_cycle;Max_cycle;Signal;HPM_P1;HPM_P2
2021/12/08 00:02:00;;;;;;;9.55;4.15;;;2.90;99.90;;;;;;6166012;23;20458;-81
2021/12/08 00:04:26;;;;;;;14.33;5.10;;;2.90;99.90;;;;;;6140980;23;20079;-80
2021/12/08 00:06:52;;;;;;;11.47;4.93;;;2.90;99.90;;;;;;6163906;23;20017;-81
2021/12/08 00:09:48;;;;;;;14.73;4.97;;;2.90;99.90;;;;;;6163838;23;20024;-81
2021/12/08 00:14:48;;;;;;;9.18;4.50;;;2.90;99.90;;;;;;6167315;23;20097;-81
2021/12/08 00:17:13;;;;;;;10.87;4.93;;;3.00;99.90;;;;;;6164462;23;20061;-81
2021/12/08 00:19:39;;;;;;;12.73;5.23;;;2.90;99.90;;;;;;6163045;23;20088;-81
2021/12/08 00:22:05;;;;;;;11.47;4.73;;;3.00;99.90;;;;;;6160007;23;20327;-82
2021/12/08 00:24:31;;;;;;;9.80;4.80;;;2.90;99.90;;;;;;6162650;23;20021;-82
2021/12/08 00:26:56;;;;;;;12.30;5.13;;;3.00;99.90;;;;;;6164953;23;20032;-82
2021/12/08 00:29:23;;;;;;;8.90;4.57;;;3.00;99.90;;;;;;6162161;23;20147;-81
2021/12/08 00:31:49;;;;;;;10.80;5.13;;;3.00;99.90;;;;;;6186907;23;20371;-81
2021/12/08 00:34:15;;;;;;;10.85;5.38;;;3.00;99.90;;;;;;6187223;23;20442;-82
2021/12/08 00:36:44;;;;;;;9.40;5.27;;;3.10;99.90;;;;;;6162639;23;20020;-82
2021/12/08 00:39:10;;;;;;;11.30;5.22;;;3.00;99.90;;;;;;6164510;23;20013;-81
2021/12/08 00:41:36;;;;;;;14.85;6.50;;;3.10;99.90;;;;;;6187540;23;20021;-81
2021/12/08 00:44:04;;;;;;;11.43;5.65;;;3.10;99.90;;;;;;6187934;23;20123;-82
2021/12/08 00:46:30;;;;;;;12.73;6.57;;;3.10;99.90;;;;;;6187337;23;20009;-82
2021/12/08 00:48:55;;;;;;;12.73;6.23;;;3.10;99.90;;;;;;6163277;23;20052;-82
2021/12/08 00:51:21;;;;;;;13.17;6.37;;;3.10;99.90;;;;;;6163424;23;20119;-82
2021/12/08 00:53:47;;;;;;;16.27;6.60;;;3.10;99.90;;;;;;6164326;23;20009;-82
2021/12/08 00:56:14;;;;;;;15.32;6.65;;;3.10;99.90;;;;;;6189232;23;20166;-82
2021/12/08 00:58:41;;;;;;;11.65;6.32;;;3.10;99.90;;;;;;6164574;23;20013;-82
2021/12/08 01:01:08;;;;;;;14.05;6.20;;;3.20;99.90;;;;;;6164910;23;20075;-82
2021/12/08 01:03:36;;;;;;;17.70;7.18;;;3.10;99.90;;;;;;6189048;23;20603;-82
2021/12/08 01:06:04;;;;;;;14.70;6.72;;;3.20;99.90;;;;;;6190765;23;20025;-82
2021/12/08 01:08:30;;;;;;;11.45;6.70;;;3.10;99.90;;;;;;6141040;23;20051;-81
2021/12/08 01:11:00;;;;;;;13.38;6.88;;;3.20;99.90;;;;;;6164717;23;20013;-81
2021/12/08 01:13:26;;;;;;;12.35;6.35;;;3.10;99.90;;;;;;6215018;23;20016;-82
2021/12/08 01:15:55;;;;;;;15.68;6.90;;;3.20;99.90;;;;;;6165683;23;20021;-82
2021/12/08 01:18:22;;;;;;;18.33;7.90;;;3.20;99.90;;;;;;6164629;23;20454;-82
2021/12/08 01:20:50;;;;;;;12.95;7.05;;;3.20;99.90;;;;;;6164297;23;20091;-82
2021/12/08 01:23:16;;;;;;;11.50;7.00;;;3.20;99.90;;;;;;6140819;23;20020;-82
2021/12/08 01:25:43;;;;;;;16.77;7.22;;;3.20;99.90;;;;;;6166334;23;20017;-81
2021/12/08 01:28:09;;;;;;;16.25;8.73;;;3.20;99.90;;;;;;6191791;23;20021;-81
2021/12/08 01:30:35;;;;;;;13.37;7.93;;;3.20;99.90;;;;;;6166153;23;20437;-81
2021/12/08 01:33:01;;;;;;;14.40;7.68;;;3.20;99.90;;;;;;6165696;23;20104;-81
2021/12/08 01:35:28;;;;;;;14.48;7.90;;;3.20;99.90;;;;;;6166218;23;20020;-81
2021/12/08 01:37:53;;;;;;;15.48;7.90;;;3.20;99.90;;;;;;6191385;23;20024;-82
2021/12/08 01:40:19;;;;;;;14.50;7.87;;;3.20;99.90;;;;;;6166897;23;20549;-81
2021/12/08 01:42:49;;;;;;;14.47;8.63;;;3.30;99.90;;;;;;6166507;23;20299;-82
2021/12/08 01:48:08;;;;;;;16.15;9.23;;;3.30;99.90;;;;;;6190937;23;20415;-82
2021/12/08 01:50:36;;;;;;;18.50;10.10;;;3.40;99.90;;;;;;6192045;23;20017;-82
2021/12/08 01:53:05;;;;;;;12.52;8.02;;;3.30;99.90;;;;;;6141155;23;20048;-82
2021/12/08 01:55:31;;;;;;;18.35;9.40;;;3.40;99.90;;;;;;6192805;23;20095;-82
2021/12/08 01:57:57;;;;;;;20.97;10.20;;;3.30;99.90;;;;;;6190904;23;20013;-82
2021/12/08 02:00:32;;;;;;;17.70;9.90;;;3.30;99.90;;;;;;6143733;23;20016;-82
2021/12/08 02:02:58;;;;;;;;;;;3.40;99.90;;;;;;6191495;23;20467;-82
2021/12/08 02:05:24;;;;;;;15.33;9.00;;;3.30;99.90;;;;;;6166379;23;19924;-82
2021/12/08 02:07:50;;;;;;;21.08;10.00;;;3.40;99.90;;;;;;6190893;23;20349;-82
2021/12/08 02:10:18;;;;;;;16.45;9.75;;;3.40;99.90;;;;;;6190750;23;20013;-82
2021/12/08 02:12:44;;;;;;;18.42;10.07;;;3.40;99.90;;;;;;6191631;23;20336;-82
2021/12/08 02:15:13;;;;;;;19.37;10.73;;;3.40;99.90;;;;;;6166796;23;20013;-82
2021/12/08 02:17:40;;;;;;;16.85;9.23;;;3.40;99.90;;;;;;6191012;23;20457;-82
2021/12/08 02:20:09;;;;;;;14.32;9.73;;;3.40;99.90;;;;;;6190668;23;20091;-82
2021/12/08 02:22:35;;;;;;;14.00;10.05;;;3.40;99.90;;;;;;6191398;23;20100;-82
2021/12/08 02:25:01;;;;;;;18.40;11.23;;;3.50;99.90;;;;;;6166425;23;20028;-82
2021/12/08 02:27:27;;;;;;;17.57;11.37;;;3.50;99.90;;;;;;6166360;23;20493;-82
2021/12/08 02:29:59;;;;;;;18.65;11.82;;;3.50;99.90;;;;;;6188897;23;20024;-82
2021/12/08 02:46:39;;;;;;;21.13;11.80;;;3.50;99.90;;;;;;6189133;23;20450;-82
2021/12/08 02:48:59;;;;;;;21.60;12.02;;;3.70;99.90;;;;;;6170413;23;20397;-82
2021/12/08 02:51:24;;;;;;;19.43;12.50;;;3.70;99.90;;;;;;6165889;23;20017;-82
2021/12/08 02:53:50;;;;;;;18.37;11.53;;;3.70;99.90;;;;;;6191002;23;20017;-82
2021/12/08 02:56:17;;;;;;;20.00;12.33;;;3.70;99.90;;;;;;6166237;23;20088;-82
2021/12/08 02:58:43;;;;;;;25.77;12.85;;;3.70;99.90;;;;;;6142806;23;20017;-82
2021/12/08 03:01:11;;;;;;;17.52;11.57;;;3.80;99.90;;;;;;6165075;23;20021;-82
2021/12/08 03:03:38;;;;;;;20.38;11.98;;;3.80;99.90;;;;;;6165482;23;20016;-82
2021/12/08 03:06:04;;;;;;;17.17;11.20;;;3.80;99.90;;;;;;6166145;23;20079;-82
2021/12/08 03:08:31;;;;;;;18.25;11.60;;;3.90;99.90;;;;;;6191997;23;20021;-82
2021/12/08 03:10:58;;;;;;;19.10;11.25;;;3.90;99.90;;;;;;6191019;23;20048;-82
2021/12/08 03:13:41;;;;;;;18.58;10.90;;;3.90;99.90;;;;;;6190022;23;20068;-82
2021/12/08 03:16:10;;;;;;;19.67;12.73;;;3.90;99.90;;;;;;6191036;23;20013;-82
2021/12/08 03:18:40;;;;;;;21.52;11.52;;;3.90;99.90;;;;;;6142214;23;20016;-82
2021/12/08 03:21:09;;;;;;;17.73;12.00;;;4.00;99.90;;;;;;6141042;23;20021;-82
2021/12/08 03:24:07;;;;;;;18.20;11.55;;;4.00;99.90;;;;;;6188696;23;20045;-82
2021/12/08 03:26:30;;;;;;;17.25;11.77;;;4.00;99.90;;;;;;6190770;23;20025;-82
2021/12/08 03:29:03;;;;;;;18.85;11.90;;;4.00;99.90;;;;;;6166344;23;20024;-82
2021/12/08 03:31:34;;;;;;;17.83;12.82;;;4.10;99.90;;;;;;6142144;23;20072;-82
2021/12/08 03:34:00;;;;;;;19.30;12.68;;;4.10;99.90;;;;;;6141298;23;20092;-82
2021/12/08 03:36:26;;;;;;;22.13;11.97;;;4.20;99.90;;;;;;6163976;23;20013;-82
2021/12/08 03:38:51;;;;;;;18.23;12.13;;;4.20;99.90;;;;;;6163344;23;20020;-82
2021/12/08 03:41:17;;;;;;;18.00;12.40;;;4.20;99.90;;;;;;6139261;23;20013;-82
2021/12/08 03:43:43;;;;;;;20.77;13.03;;;4.30;99.90;;;;;;6189988;23;20017;-82
2021/12/08 03:46:12;;;;;;;21.53;12.77;;;4.20;99.90;;;;;;6188470;23;20719;-82
2021/12/08 03:48:50;;;;;;;23.35;13.23;;;4.30;99.90;;;;;;6140372;23;20019;-82
2021/12/08 03:51:17;;;;;;;23.30;13.70;;;4.30;99.90;;;;;;6165707;23;20092;-82
2021/12/08 03:53:45;;;;;;;21.90;13.85;;;4.20;99.90;;;;;;6139536;23;20009;-82
2021/12/08 03:56:10;;;;;;;20.60;13.45;;;4.30;99.90;;;;;;6189352;23;20017;-83
2021/12/08 03:58:36;;;;;;;21.23;13.60;;;4.30;99.90;;;;;;6139753;23;20048;-83
2021/12/08 04:01:04;;;;;;;19.97;12.53;;;4.30;99.90;;;;;;6163223;23;20450;-82
2021/12/08 04:03:32;;;;;;;21.45;13.40;;;4.40;99.90;;;;;;6188377;23;20016;-82
2021/12/08 04:06:02;;;;;;;21.10;13.85;;;4.40;99.90;;;;;;6164770;23;20041;-82
2021/12/08 04:08:42;;;;;;;23.27;13.93;;;4.30;99.90;;;;;;6164368;23;20069;-82
2021/12/08 04:11:10;;;;;;;26.75;14.35;;;4.40;99.90;;;;;;6187663;23;20076;-82
2021/12/08 04:13:48;;;;;;;24.05;14.65;;;4.40;99.90;;;;;;6162640;23;20021;-82
2021/12/08 04:16:17;;;;;;;23.17;14.63;;;4.40;99.90;;;;;;6164335;23;20021;-82
2021/12/08 04:18:44;;;;;;;26.35;14.13;;;4.50;99.90;;;;;;6189168;23;20008;-82
2021/12/08 04:21:11;;;;;;;21.42;14.55;;;4.50;99.90;;;;;;6187875;23;20346;-82
2021/12/08 04:23:39;;;;;;;23.60;14.45;;;4.40;99.90;;;;;;6162593;23;20091;-82
2021/12/08 04:26:17;;;;;;;23.85;14.55;;;4.50;99.90;;;;;;6138492;23;20434;-82
2021/12/08 04:28:44;;;;;;;21.55;13.93;;;4.50;99.90;;;;;;6161972;23;20361;-82
2021/12/08 04:31:20;;;;;;;24.88;15.70;;;4.60;99.90;;;;;;6138944;23;20120;-82
2021/12/08 04:33:52;;;;;;;22.77;14.15;;;4.50;99.90;;;;;;6189460;23;20017;-82
2021/12/08 04:36:19;;;;;;;24.58;14.07;;;4.60;99.90;;;;;;6189333;23;20013;-82
2021/12/08 04:38:49;;;;;;;26.55;14.70;;;4.60;99.90;;;;;;6139416;23;20020;-82
2021/12/08 04:41:27;;;;;;;22.48;14.05;;;4.60;99.90;;;;;;6163570;23;20022;-82
2021/12/08 04:44:04;;;;;;;24.88;14.30;;;4.60;99.90;;;;;;6162391;23;20017;-83
2021/12/08 04:52:27;;;;;;;21.55;13.85;;;4.50;99.90;;;;;;6187189;23;20056;-82
2021/12/08 05:03:39;;;;;;;21.95;13.63;;;4.50;99.90;;;;;;6141048;23;20021;-82
2021/12/08 05:06:20;;;;;;;22.75;12.93;;;4.60;99.90;;;;;;6162056;23;20068;-82
2021/12/08 05:08:50;;;;;;;20.13;13.07;;;4.60;99.90;;;;;;6163977;23;20017;-82
2021/12/08 05:11:26;;;;;;;21.40;12.48;;;4.60;99.90;;;;;;6185811;23;20024;-82
2021/12/08 05:13:57;;;;;;;19.10;11.93;;;4.60;99.90;;;;;;6185588;23;20092;-83
2021/12/08 05:16:26;;;;;;;18.02;11.18;;;4.60;99.90;;;;;;6162637;23;20013;-83
2021/12/08 05:18:54;;;;;;;17.33;11.63;;;4.70;99.90;;;;;;6186261;23;20423;-83
2021/12/08 05:21:44;;;;;;;19.08;11.40;;;4.60;99.90;;;;;;6186532;23;20434;-83
2021/12/08 05:24:19;;;;;;;17.98;10.85;;;4.70;99.90;;;;;;6187023;23;20100;-83
2021/12/08 05:26:54;;;;;;;17.13;10.48;;;4.70;99.90;;;;;;6187357;23;20068;-83
2021/12/08 05:29:23;;;;;;;;;;;4.70;99.90;;;;;;6187147;23;20027;-83
2021/12/08 05:31:50;;;;;;;21.20;9.32;;;4.70;99.90;;;;;;6185417;23;20330;-83
2021/12/08 05:34:18;;;;;;;18.35;9.65;;;4.70;99.90;;;;;;6163046;23;20021;-83
2021/12/08 05:36:44;;;;;;;15.68;9.88;;;4.80;99.90;;;;;;6187873;23;20013;-83
2021/12/08 05:39:20;;;;;;;16.83;9.50;;;4.70;99.90;;;;;;6163174;23;20063;-83
2021/12/08 05:41:51;;;;;;;23.38;10.25;;;4.70;99.90;;;;;;6187332;23;20017;-83
2021/12/08 05:44:17;;;;;;;18.38;9.57;;;4.70;99.90;;;;;;6163202;23;20017;-83
2021/12/08 05:46:45;;;;;;;16.27;9.10;;;4.70;99.90;;;;;;6161895;23;20090;-83
2021/12/08 05:49:13;;;;;;;17.95;9.38;;;4.70;99.90;;;;;;6186470;23;20021;-83
2021/12/08 05:51:40;;;;;;;17.48;9.73;;;4.70;99.90;;;;;;6185524;23;20017;-83
2021/12/08 05:54:13;;;;;;;17.77;9.65;;;4.70;99.90;;;;;;6161488;23;20028;-83
2021/12/08 05:56:41;;;;;;;16.30;9.23;;;4.60;99.90;;;;;;6162381;23;20048;-83
2021/12/08 05:59:08;;;;;;;19.13;10.45;;;4.80;99.90;;;;;;6161019;23;20013;-83
2021/12/08 06:01:51;;;;;;;20.05;10.05;;;4.70;99.90;;;;;;6186500;23;20031;-83
2021/12/08 06:04:17;;;;;;;18.65;9.40;;;4.70;99.90;;;;;;6186038;23;20528;-83
2021/12/08 06:06:45;;;;;;;15.50;8.70;;;4.70;99.90;;;;;;6163249;23;20029;-83
2021/12/08 06:09:11;;;;;;;17.40;8.77;;;4.60;99.90;;;;;;6186703;23;20064;-83
2021/12/08 06:11:38;;;;;;;23.30;9.05;;;4.60;99.90;;;;;;6163259;23;20027;-83
2021/12/08 06:14:07;;;;;;;18.63;8.05;;;4.50;99.90;;;;;;6164356;23;20053;-83
2021/12/08 06:16:36;;;;;;;21.30;8.93;;;4.50;99.90;;;;;;6187922;23;20013;-83
2021/12/08 06:19:04;;;;;;;20.83;8.18;;;4.40;99.90;;;;;;6187850;23;20441;-83
2021/12/08 06:21:30;;;;;;;20.30;7.82;;;4.40;99.90;;;;;;6163015;23;20332;-83
2021/12/08 06:23:57;;;;;;;19.95;8.20;;;4.40;99.90;;;;;;6190719;23;20378;-83
2021/12/08 06:26:25;;;;;;;14.25;7.43;;;4.40;99.90;;;;;;6187727;23;20055;-83
2021/12/08 06:28:52;;;;;;;18.77;7.82;;;4.30;99.90;;;;;;6188440;23;20103;-83
2021/12/08 06:31:23;;;;;;;22.50;7.90;;;4.40;99.90;;;;;;6163457;23;20024;-83
2021/12/08 06:33:49;;;;;;;19.88;7.85;;;4.30;99.90;;;;;;6188112;23;20013;-83
2021/12/08 06:36:21;;;;;;;15.65;8.07;;;4.40;99.90;;;;;;6164712;23;20009;-83
2021/12/08 06:38:47;;;;;;;19.85;7.43;;;4.40;99.90;;;;;;6164087;23;20069;-83
2021/12/08 06:41:30;;;;;;;17.63;7.40;;;4.40;99.90;;;;;;6163002;23;20489;-83
2021/12/08 06:44:01;;;;;;;20.55;7.78;;;4.40;99.90;;;;;;6162626;23;20013;-83
2021/12/08 06:46:28;;;;;;;18.35;6.90;;;4.40;99.90;;;;;;6164415;23;20016;-83
2021/12/08 06:48:56;;;;;;;14.90;7.15;;;4.30;99.90;;;;;;6187505;23;20469;-83
2021/12/08 06:51:27;;;;;;;15.85;6.90;;;4.30;99.90;;;;;;6188318;23;20386;-83
2021/12/08 06:54:00;;;;;;;15.40;6.68;;;4.40;99.90;;;;;;6161923;23;20082;-83
2021/12/08 06:56:33;;;;;;;13.25;6.18;;;4.40;99.90;;;;;;6163966;23;20013;-83
2021/12/08 06:59:03;;;;;;;14.40;6.50;;;4.40;99.90;;;;;;6161650;23;20052;-83
2021/12/08 07:01:55;;;;;;;14.23;6.25;;;4.50;99.90;;;;;;6186174;23;20055;-83
2021/12/08 07:04:54;;;;;;;12.88;6.35;;;4.50;99.90;;;;;;6160460;23;20532;-83
2021/12/08 07:07:25;;;;;;;16.10;5.95;;;4.60;99.90;;;;;;6186845;23;20025;-83
2021/12/08 07:10:03;;;;;;;12.18;5.95;;;4.60;99.90;;;;;;6160231;23;20020;-83
2021/12/08 07:12:31;;;;;;;10.73;5.53;;;4.60;99.90;;;;;;6186078;23;20017;-83
2021/12/08 07:15:20;;;;;;;14.57;5.88;;;4.60;99.90;;;;;;6186965;23;20330;-83
2021/12/08 07:17:50;;;;;;;16.88;6.10;;;4.70;99.90;;;;;;6188586;23;20013;-83
2021/12/08 07:20:41;;;;;;;13.95;5.70;;;4.70;99.90;;;;;;6187768;23;20021;-83
2021/12/08 07:23:38;;;;;;;10.43;5.40;;;4.70;99.90;;;;;;6162430;23;20017;-83
2021/12/08 07:26:09;;;;;;;10.77;5.50;;;4.70;99.90;;;;;;6158557;23;20032;-83
2021/12/08 07:28:37;;;;;;;14.48;6.00;;;4.60;99.90;;;;;;6162309;23;20020;-83
2021/12/08 07:31:18;;;;;;;11.90;5.30;;;4.60;99.90;;;;;;6188048;23;20021;-83
2021/12/08 07:33:45;;;;;;;12.75;4.68;;;4.60;99.90;;;;;;6186458;23;20028;-83
2021/12/08 07:36:16;;;;;;;15.32;4.85;;;4.60;99.90;;;;;;6162185;23;20017;-83
2021/12/08 07:38:43;;;;;;;10.90;5.43;;;4.50;99.90;;;;;;6187513;23;20013;-84
2021/12/08 07:41:29;;;;;;;13.15;5.20;;;4.50;99.90;;;;;;6185792;23;20017;-84
2021/12/08 07:43:57;;;;;;;13.30;5.03;;;4.50;99.90;;;;;;6188364;23;20021;-84
2021/12/08 07:46:27;;;;;;;13.10;5.43;;;4.50;99.90;;;;;;6187747;23;20039;-83
2021/12/08 07:49:01;;;;;;;11.88;4.63;;;4.50;99.90;;;;;;6188924;23;20013;-84
2021/12/08 07:51:35;;;;;;;9.00;4.40;;;4.50;99.90;;;;;;6163489;23;20047;-83
2021/12/08 07:54:02;;;;;;;13.95;4.57;;;4.60;99.90;;;;;;6162320;23;20013;-83
2021/12/08 07:56:29;;;;;;;11.63;3.70;;;4.50;99.90;;;;;;6164476;23;20036;-83
2021/12/08 07:59:02;;;;;;;10.65;4.03;;;4.50;99.90;;;;;;6155477;23;20062;-83
2021/12/08 08:01:35;;;;;;;9.63;4.40;;;4.50;99.90;;;;;;6186924;23;20021;-83
2021/12/08 08:04:05;;;;;;;5.50;3.95;;;4.50;99.90;;;;;;6189237;23;20013;-83
2021/12/08 08:06:35;;;;;;;9.20;3.80;;;4.40;99.90;;;;;;6168215;23;20032;-83
2021/12/08 08:09:07;;;;;;;8.77;3.42;;;4.40;99.90;;;;;;6192700;23;20071;-83
2021/12/08 08:11:41;;;;;;;13.05;3.47;;;4.40;99.90;;;;;;6192719;23;20071;-83
2021/12/08 08:14:10;;;;;;;7.55;3.75;;;4.30;99.90;;;;;;6164903;23;20013;-83
2021/12/08 08:16:37;;;;;;;8.00;3.20;;;4.30;99.90;;;;;;6190727;23;20017;-83
2021/12/08 08:19:10;;;;;;;12.35;3.60;;;4.20;99.90;;;;;;6190849;23;20013;-83
2021/12/08 08:21:44;;;;;;;11.73;4.25;;;4.20;99.90;;;;;;6191688;23;20378;-83
2021/12/08 08:24:11;;;;;;;12.73;3.22;;;4.10;99.90;;;;;;6189645;23;20452;-84
2021/12/08 08:26:40;;;;;;;10.85;3.40;;;4.10;99.90;;;;;;6191169;23;20016;-84
2021/12/08 08:29:07;;;;;;;8.75;3.97;;;4.00;99.90;;;;;;6187727;23;20405;-84
2021/12/08 08:31:48;;;;;;;13.55;3.78;;;3.90;99.90;;;;;;6163335;23;20021;-84
2021/12/08 08:34:14;;;;;;;10.00;4.38;;;3.90;99.90;;;;;;6164604;23;20055;-83
2021/12/08 08:36:45;;;;;;;10.70;3.78;;;3.90;99.90;;;;;;6163634;23;20048;-83
2021/12/08 08:39:22;;;;;;;10.27;3.70;;;3.90;99.90;;;;;;6187274;23;20016;-83
2021/12/08 08:41:52;;;;;;;8.90;3.40;;;3.90;99.90;;;;;;6162347;23;20024;-83
2021/12/08 08:44:29;;;;;;;7.75;3.15;;;3.90;99.90;;;;;;6190272;23;20017;-83
2021/12/08 08:46:57;;;;;;;8.98;3.00;;;3.90;99.90;;;;;;6189655;23;20017;-84
2021/12/08 08:49:27;;;;;;;9.98;2.92;;;3.90;99.90;;;;;;6164316;23;20017;-84
2021/12/08 08:52:17;;;;;;;11.90;3.03;;;3.90;99.90;;;;;;6164447;23;20025;-84
2021/12/08 08:54:49;;;;;;;8.98;3.10;;;3.90;99.90;;;;;;6155349;23;20488;-84
2021/12/08 08:57:23;;;;;;;11.85;3.10;;;3.80;99.90;;;;;;6161895;23;20024;-84
2021/12/08 08:59:59;;;;;;;7.28;2.45;;;3.90;99.90;;;;;;6165545;23;20013;-84
2021/12/08 09:02:33;;;;;;;14.90;3.20;;;3.80;99.90;;;;;;6188272;23;20013;-84
2021/12/08 09:05:03;;;;;;;8.38;3.42;;;3.80;99.90;;;;;;6164734;23;20319;-84
2021/12/08 09:07:34;;;;;;;10.80;2.80;;;3.90;99.90;;;;;;6185797;23;20021;-84
2021/12/08 09:10:06;;;;;;;10.95;2.78;;;3.90;99.90;;;;;;6191666;23;20008;-84
2021/12/08 09:12:49;;;;;;;9.00;2.30;;;3.90;99.90;;;;;;6187943;23;20039;-84
2021/12/08 09:15:24;;;;;;;11.68;2.50;;;3.90;99.90;;;;;;6180384;23;20350;-84
2021/12/08 09:18:05;;;;;;;13.93;2.60;;;4.00;99.90;;;;;;6180285;23;20017;-84
2021/12/08 09:21:11;;;;;;;8.65;2.10;;;4.00;99.90;;;;;;6178459;23;20341;-84
2021/12/08 09:23:56;;;;;;;7.78;2.22;;;4.10;99.90;;;;;;6178757;23;20099;-84
2021/12/08 09:26:26;;;;;;;10.45;2.78;;;4.20;99.90;;;;;;6178797;23;20032;-84
2021/12/08 09:28:57;;;;;;;10.20;2.35;;;4.20;99.90;;;;;;6179589;23;20124;-84
2021/12/08 09:31:28;;;;;;;9.07;2.38;;;4.20;99.90;;;;;;6153225;23;20111;-84
2021/12/08 09:34:18;;;;;;;8.00;2.13;;;4.30;99.90;;;;;;6176737;23;20077;-85
2021/12/08 09:37:00;;;;;;;14.00;2.78;;;4.30;99.90;;;;;;6178775;23;20013;-84
2021/12/08 09:39:31;;;;;;;9.63;2.45;;;4.30;99.90;;;;;;6178728;23;20579;-84
2021/12/08 09:42:03;;;;;;;13.02;3.45;;;4.20;99.90;;;;;;6178331;23;20392;-84
2021/12/08 09:44:39;;;;;;;14.15;3.00;;;4.20;99.90;;;;;;6154652;23;20072;-84
2021/12/08 09:47:05;;;;;;;12.00;2.95;;;4.30;99.90;;;;;;6177223;23;20021;-84
2021/12/08 09:49:32;;;;;;;10.90;2.70;;;4.20;99.90;;;;;;6153948;23;20027;-85
2021/12/08 09:52:00;;;;;;;10.32;3.20;;;4.30;99.90;;;;;;6179241;23;20040;-84
2021/12/08 09:54:26;;;;;;;11.27;2.80;;;4.20;99.90;;;;;;6177194;23;20497;-84
2021/12/08 09:56:53;;;;;;;12.75;3.65;;;4.30;99.90;;;;;;6178499;23;20016;-84
2021/12/08 09:59:21;;;;;;;13.32;3.50;;;4.20;99.90;;;;;;6176585;23;20013;-84
2021/12/08 10:01:48;;;;;;;9.65;3.30;;;4.30;99.90;;;;;;6152906;23;20017;-84
2021/12/08 10:04:15;;;;;;;13.90;3.72;;;4.30;99.90;;;;;;6180125;23;20047;-85
2021/12/08 10:06:45;;;;;;;11.60;3.58;;;4.30;99.90;;;;;;6155241;23;20564;-84
2021/12/08 10:09:11;;;;;;;10.88;3.03;;;4.30;99.90;;;;;;6181050;23;20525;-84
2021/12/08 10:11:37;;;;;;;13.52;3.30;;;4.40;99.90;;;;;;6130079;23;20376;-85
2021/12/08 10:14:03;;;;;;;12.77;3.60;;;4.40;99.90;;;;;;6154353;23;20013;-84
2021/12/08 10:16:30;;;;;;;10.55;2.88;;;4.40;99.90;;;;;;6153145;23;20535;-85
2021/12/08 10:18:56;;;;;;;11.23;3.20;;;4.40;99.90;;;;;;6152163;23;20080;-85
2021/12/08 10:21:35;;;;;;;11.82;2.97;;;4.40;99.90;;;;;;6177775;23;20020;-84
2021/12/08 10:24:11;;;;;;;8.20;2.70;;;4.40;99.90;;;;;;6177897;23;20540;-85
2021/12/08 10:26:37;;;;;;;10.48;3.03;;;4.40;99.90;;;;;;6156036;23;20028;-85
2021/12/08 10:29:05;;;;;;;9.97;2.30;;;4.40;99.90;;;;;;6153625;23;20021;-85
2021/12/08 10:31:34;;;;;;;13.80;3.30;;;4.50;99.90;;;;;;6152815;23;20036;-85
2021/12/08 10:34:14;;;;;;;9.80;3.17;;;4.50;99.90;;;;;;6178449;23;20397;-85
2021/12/08 10:36:46;;;;;;;8.65;3.00;;;4.60;99.90;;;;;;6175022;23;20286;-85
2021/12/08 10:39:21;;;;;;;10.95;2.75;;;4.60;99.90;;;;;;6174860;23;20017;-85
2021/12/08 10:42:01;;;;;;;8.77;2.50;;;4.60;99.90;;;;;;6174188;23;20052;-85
2021/12/08 10:44:38;;;;;;;9.55;2.50;;;4.70;99.90;;;;;;6152876;23;20013;-85
2021/12/08 10:47:04;;;;;;;9.35;2.80;;;4.80;99.90;;;;;;6182907;23;20024;-84
2021/12/08 10:54:46;;;;;;;7.97;2.20;;;4.90;99.90;;;;;;6161212;23;20472;-85
2021/12/08 10:57:37;;;;;;;8.27;2.50;;;4.90;99.90;;;;;;6154064;23;20048;-85
2021/12/08 11:00:11;;;;;;;6.32;2.17;;;4.90;99.90;;;;;;6179304;23;20013;-85
2021/12/08 11:02:59;;;;;;;9.43;2.53;;;4.90;99.90;;;;;;6177743;23;20009;-85
2021/12/08 11:05:24;;;;;;;8.73;3.03;;;4.90;99.90;;;;;;6175283;23;20029;-85
2021/12/08 11:08:13;;;;;;;10.80;2.10;;;5.00;99.90;;;;;;6177938;23;20039;-85
2021/12/08 11:10:50;;;;;;;10.30;2.70;;;5.00;99.90;;;;;;6177446;23;20063;-85
2021/12/08 11:13:22;;;;;;;8.45;3.05;;;5.00;99.90;;;;;;6177003;23;20013;-85
2021/12/08 11:15:56;;;;;;;6.75;2.42;;;5.00;99.90;;;;;;6152638;23;20020;-85
2021/12/08 11:18:23;;;;;;;13.05;3.72;;;5.10;99.90;;;;;;6153618;23;20478;-85
2021/12/08 11:20:54;;;;;;;10.77;3.17;;;5.10;99.90;;;;;;6154165;23;20024;-85
2021/12/08 11:23:44;;;;;;;10.50;2.72;;;5.10;99.90;;;;;;6177077;23;20028;-85
2021/12/08 11:26:16;;;;;;;16.27;3.50;;;5.20;99.90;;;;;;6176366;23;20054;-85
2021/12/08 11:28:42;;;;;;;9.32;2.55;;;5.20;99.90;;;;;;6177191;23;20346;-85
2021/12/08 11:31:12;;;;;;;10.45;3.42;;;5.20;99.90;;;;;;6152309;23;20016;-85
2021/12/08 11:33:43;;;;;;;12.73;3.08;;;5.20;99.90;;;;;;6176387;23;20016;-85
2021/12/08 11:36:18;;;;;;;7.05;3.22;;;5.20;99.90;;;;;;6151550;23;20009;-85
2021/12/08 11:38:46;;;;;;;7.57;3.43;;;5.20;99.90;;;;;;6153468;23;20017;-85
2021/12/08 11:41:37;;;;;;;11.27;3.83;;;5.20;99.90;;;;;;6178234;23;20017;-85
2021/12/08 11:44:18;;;;;;;9.65;3.63;;;5.20;99.90;;;;;;6179160;23;20346;-85
2021/12/08 11:46:51;;;;;;;8.55;3.20;;;5.20;99.90;;;;;;6179733;23;20021;-85
2021/12/08 11:49:17;;;;;;;10.30;4.50;;;5.20;99.90;;;;;;6173267;23;20013;-85
2021/12/08 11:51:43;;;;;;;9.57;4.32;;;5.20;99.90;;;;;;6156251;23;20473;-84
2021/12/08 11:54:21;;;;;;;7.37;4.03;;;5.20;99.90;;;;;;6179651;23;20013;-85
2021/12/08 11:56:47;;;;;;;10.45;3.92;;;5.20;99.90;;;;;;6179387;23;20020;-85
2021/12/08 11:59:14;;;;;;;10.47;3.70;;;5.30;99.90;;;;;;6154714;23;20088;-86
2021/12/08 12:01:40;;;;;;;8.93;3.60;;;5.30;99.90;;;;;;6153981;23;20481;-85
2021/12/08 12:04:08;;;;;;;5.35;3.00;;;5.30;99.90;;;;;;6153036;23;20017;-86
2021/12/08 12:06:36;;;;;;;7.55;3.70;;;5.30;99.90;;;;;;6176220;23;20029;-86
2021/12/08 12:09:04;;;;;;;10.55;3.28;;;5.30;99.90;;;;;;6154603;23;20013;-85
2021/12/08 12:11:31;;;;;;;9.18;3.40;;;5.40;99.90;;;;;;6180445;23;20075;-85
2021/12/08 12:13:59;;;;;;;10.05;3.40;;;5.40;99.90;;;;;;6153835;23;20024;-86
2021/12/08 12:16:25;;;;;;;8.02;3.22;;;5.40;99.90;;;;;;6180355;23;20049;-85
2021/12/08 12:18:54;;;;;;;7.65;3.10;;;5.40;99.90;;;;;;6155550;23;20009;-85
2021/12/08 12:21:30;;;;;;;7.00;3.05;;;5.40;99.90;;;;;;6155140;23;20016;-85
2021/12/08 12:24:27;;;;;;;9.02;3.03;;;5.40;99.90;;;;;;6179344;23;20009;-85
2021/12/08 12:27:09;;;;;;;6.22;2.95;;;5.40;99.90;;;;;;6178860;23;20017;-86
2021/12/08 12:30:01;;;;;;;9.25;3.10;;;5.40;99.90;;;;;;6179019;23;20036;-86
2021/12/08 12:32:54;;;;;;;8.65;3.53;;;5.40;99.90;;;;;;6178159;23;20324;-86
2021/12/08 12:35:27;;;;;;;6.20;2.75;;;5.30;99.90;;;;;;6174807;23;20020;-85
2021/12/08 12:38:11;;;;;;;8.38;2.95;;;5.30;99.90;;;;;;6160543;23;20013;-80
2021/12/08 12:40:50;;;;;;;7.25;3.10;;;5.30;99.90;;;;;;6172434;23;20013;-83
2021/12/08 12:43:27;;;;;;;9.25;3.08;;;5.30;99.90;;;;;;6194793;23;20365;-84
2021/12/08 12:46:22;;;;;;;6.03;3.20;;;5.20;99.90;;;;;;6165918;23;20083;-83
2021/12/08 12:48:51;;;;;;;7.07;3.33;;;5.30;99.90;;;;;;6164882;23;20017;-83
2021/12/08 12:51:18;;;;;;;7.80;3.35;;;5.40;99.90;;;;;;6167798;23;20008;-83
2021/12/08 12:53:46;;;;;;;9.25;3.42;;;5.40;99.90;;;;;;6165964;23;20028;-83
2021/12/08 12:56:18;;;;;;;9.93;3.50;;;5.40;99.90;;;;;;6190896;23;20040;-83
2021/12/08 12:58:52;;;;;;;7.13;3.10;;;5.40;99.90;;;;;;6190020;23;20020;-84
2021/12/08 13:01:33;;;;;;;6.85;3.00;;;5.50;99.90;;;;;;6190310;23;20069;-83
2021/12/08 13:04:09;;;;;;;7.15;2.92;;;5.40;99.90;;;;;;6189616;23;20013;-83
2021/12/08 13:06:45;;;;;;;8.02;2.97;;;5.30;99.90;;;;;;6189938;23;20458;-83
2021/12/08 13:09:36;;;;;;;7.97;3.03;;;5.30;99.90;;;;;;6190922;23;20020;-82
2021/12/08 13:12:34;;;;;;;6.88;2.60;;;5.30;99.90;;;;;;6190094;23;20454;-83
2021/12/08 13:15:07;;;;;;;4.32;2.40;;;5.30;99.90;;;;;;6183354;23;20096;-82
2021/12/08 13:17:34;;;;;;;6.47;2.25;;;5.30;99.90;;;;;;6191085;23;20355;-82
2021/12/08 13:20:10;;;;;;;7.47;2.35;;;5.30;99.90;;;;;;6143937;23;20512;-83
2021/12/08 13:22:53;;;;;;;5.85;2.80;;;5.30;99.90;;;;;;6193101;23;20083;-83
2021/12/08 13:28:34;;;;;;;6.00;2.45;;;5.20;99.90;;;;;;6192884;23;20013;-83
2021/12/08 13:31:13;;;;;;;5.32;2.25;;;5.20;99.90;;;;;;6193519;23;20020;-83
2021/12/08 13:33:43;;;;;;;6.32;2.70;;;5.20;99.90;;;;;;6193844;23;20021;-83
2021/12/08 13:36:21;;;;;;;6.88;3.03;;;5.20;99.90;;;;;;6196067;23;20020;-83
2021/12/08 13:39:12;;;;;;;7.53;2.50;;;5.00;99.90;;;;;;6195044;23;20099;-83
2021/12/08 13:41:40;;;;;;;6.82;2.75;;;5.20;99.90;;;;;;6168661;23;20451;-83
2021/12/08 13:44:18;;;;;;;8.52;2.72;;;5.20;99.90;;;;;;6192435;23;20508;-82
2021/12/08 13:46:52;;;;;;;8.35;3.20;;;5.30;99.90;;;;;;6194018;23;20096;-81
2021/12/08 13:49:34;;;;;;;8.68;3.25;;;5.40;99.90;;;;;;6169669;23;20013;-82
2021/12/08 13:52:09;;;;;;;5.72;2.92;;;5.40;99.90;;;;;;6165494;23;20024;-82
2021/12/08 13:54:53;;;;;;;7.57;2.13;;;5.40;99.90;;;;;;6190159;23;20021;-82